sensor_id;sensor_type;location;lat;lon;timestamp;P1;durP1;ratioP1;P2;durP2;ratioP2
38717;SDS011;24468;52.128;9.278;2024-01-15T00:02:16;8.20;;;5.80;;
38717;SDS011;24468;52.128;9.278;2024-01-15T00:04:41;8.75;;;6.78;;
38717;SDS011;24468;52.128;9.278;2024-01-15T00:07:07;8.13;;;5.88;;
38717;SDS011;24468;52.128;9.278;2024-01-15T00:09:34;8.13;;;6.70;;
38717;SDS011;24468;52.128;9.278;2024-01-15T00:11:59;9.70;;;5.80;;
38717;SDS011;24468;52.128;9.278;2024-01-15T00:14:26;9.60;;;6.68;;
38717;SDS011;24468;52.128;9.278;2024-01-15T00:16:52;8.15;;;6.03;;
38717;SDS011;24468;52.128;9.278;2024-01-15T00:19:20;8.68;;;5.80;;
38717;SDS011;24468;52.128;9.278;2024-01-15T00:21:49;7.38;;;5.78;;
38717;SDS011;24468;52.128;9.278;2024-01-15T00:24:15;9.77;;;5.75;;
38717;SDS011;24468;52.128;9.278;2024-01-15T00:26:40;9.10;;;5.25;;
38717;SDS011;24468;52.128;9.278;2024-01-15T00:29:06;7.57;;;5.03;;
38717;SDS011;24468;52.128;9.278;2024-01-15T00:31:33;6.93;;;5.00;;
38717;SDS011;24468;52.128;9.278;2024-01-15T00:33:58;6.95;;;4.47;;
38717;SDS011;24468;52.128;9.278;2024-01-15T00:36:24;7.22;;;4.80;;
38717;SDS011;24468;52.128;9.278;2024-01-15T00:38:50;6.43;;;4.88;;
38717;SDS011;24468;52.128;9.278;2024-01-15T00:41:16;7.78;;;4.63;;
38717;SDS011;24468;52.128;9.278;2024-01-15T00:43:41;12.25;;;4.47;;
38717;SDS011;24468;52.128;9.278;2024-01-15T00:46:07;8.98;;;4.60;;
38717;SDS011;24468;52.128;9.278;2024-01-15T00:48:33;10.23;;;3.85;;
38717;SDS011;24468;52.128;9.278;2024-01-15T00:50:58;9.50;;;4.75;;
38717;SDS011;24468;52.128;9.278;2024-01-15T00:53:25;7.05;;;4.28;;
38717;SDS011;24468;52.128;9.278;2024-01-15T00:55:50;5.88;;;3.78;;
38717;SDS011;24468;52.128;9.278;2024-01-15T00:58:16;11.60;;;5.05;;
38717;SDS011;24468;52.128;9.278;2024-01-15T01:00:42;7.60;;;4.28;;
38717;SDS011;24468;52.128;9.278;2024-01-15T01:03:08;8.52;;;4.55;;
38717;SDS011;24468;52.128;9.278;2024-01-15T01:05:34;12.70;;;4.53;;
38717;SDS011;24468;52.128;9.278;2024-01-15T01:07:59;8.80;;;4.40;;
38717;SDS011;24468;52.128;9.278;2024-01-15T01:10:25;8.73;;;4.88;;
38717;SDS011;24468;52.128;9.278;2024-01-15T01:12:51;8.18;;;4.07;;
38717;SDS011;24468;52.128;9.278;2024-01-15T01:15:17;4.90;;;3.40;;
38717;SDS011;24468;52.128;9.278;2024-01-15T01:17:42;5.63;;;2.90;;
38717;SDS011;24468;52.128;9.278;2024-01-15T01:20:08;7.88;;;4.20;;
38717;SDS011;24468;52.128;9.278;2024-01-15T01:22:35;11.25;;;4.18;;
38717;SDS011;24468;52.128;9.278;2024-01-15T01:25:01;6.55;;;3.40;;
38717;SDS011;24468;52.128;9.278;2024-01-15T01:27:26;6.25;;;4.00;;
38717;SDS011;24468;52.128;9.278;2024-01-15T01:29:52;6.40;;;3.88;;
38717;SDS011;24468;52.128;9.278;2024-01-15T01:32:17;8.80;;;3.78;;
38717;SDS011;24468;52.128;9.278;2024-01-15T01:34:43;6.90;;;4.47;;
38717;SDS011;24468;52.128;9.278;2024-01-15T01:37:10;6.32;;;3.75;;
38717;SDS011;24468;52.128;9.278;2024-01-15T01:39:38;8.77;;;4.43;;
38717;SDS011;24468;52.128;9.278;2024-01-15T01:42:04;7.50;;;4.43;;
38717;SDS011;24468;52.128;9.278;2024-01-15T01:44:30;9.13;;;3.88;;
38717;SDS011;24468;52.128;9.278;2024-01-15T01:46:56;9.35;;;4.07;;
38717;SDS011;24468;52.128;9.278;2024-01-15T01:49:23;8.48;;;3.75;;
38717;SDS011;24468;52.128;9.278;2024-01-15T01:51:51;9.98;;;4.53;;
38717;SDS011;24468;52.128;9.278;2024-01-15T01:54:17;9.23;;;3.90;;
38717;SDS011;24468;52.128;9.278;2024-01-15T01:56:45;8.98;;;3.78;;
38717;SDS011;24468;52.128;9.278;2024-01-15T01:59:13;8.18;;;4.97;;
38717;SDS011;24468;52.128;9.278;2024-01-15T02:01:39;7.43;;;3.83;;
38717;SDS011;24468;52.128;9.278;2024-01-15T02:04:06;5.07;;;2.58;;
38717;SDS011;24468;52.128;9.278;2024-01-15T02:06:33;7.28;;;3.50;;
38717;SDS011;24468;52.128;9.278;2024-01-15T02:08:59;6.60;;;3.05;;
38717;SDS011;24468;52.128;9.278;2024-01-15T02:11:24;14.68;;;3.10;;
38717;SDS011;24468;52.128;9.278;2024-01-15T02:13:50;7.40;;;3.25;;
38717;SDS011;24468;52.128;9.278;2024-01-15T02:16:16;8.52;;;2.80;;
38717;SDS011;24468;52.128;9.278;2024-01-15T02:18:43;11.23;;;4.32;;
38717;SDS011;24468;52.128;9.278;2024-01-15T02:21:10;7.25;;;3.90;;
38717;SDS011;24468;52.128;9.278;2024-01-15T02:23:36;9.50;;;2.88;;
38717;SDS011;24468;52.128;9.278;2024-01-15T02:26:02;10.93;;;3.33;;
38717;SDS011;24468;52.128;9.278;2024-01-15T02:28:29;9.23;;;3.00;;
38717;SDS011;24468;52.128;9.278;2024-01-15T02:30:55;10.50;;;3.35;;
38717;SDS011;24468;52.128;9.278;2024-01-15T02:33:20;7.93;;;2.90;;
38717;SDS011;24468;52.128;9.278;2024-01-15T02:35:46;7.55;;;2.50;;
38717;SDS011;24468;52.128;9.278;2024-01-15T02:38:15;10.93;;;3.22;;
38717;SDS011;24468;52.128;9.278;2024-01-15T02:40:41;6.97;;;2.70;;
38717;SDS011;24468;52.128;9.278;2024-01-15T02:43:08;9.27;;;3.15;;
38717;SDS011;24468;52.128;9.278;2024-01-15T02:45:33;8.48;;;3.20;;
38717;SDS011;24468;52.128;9.278;2024-01-15T02:47:59;7.00;;;2.00;;
38717;SDS011;24468;52.128;9.278;2024-01-15T02:50:25;9.73;;;2.63;;
38717;SDS011;24468;52.128;9.278;2024-01-15T02:52:50;7.07;;;3.38;;
38717;SDS011;24468;52.128;9.278;2024-01-15T02:55:16;13.50;;;3.28;;
38717;SDS011;24468;52.128;9.278;2024-01-15T02:57:42;11.70;;;2.47;;
38717;SDS011;24468;52.128;9.278;2024-01-15T03:00:07;10.77;;;2.20;;
38717;SDS011;24468;52.128;9.278;2024-01-15T03:02:36;4.00;;;2.35;;
38717;SDS011;24468;52.128;9.278;2024-01-15T03:05:04;11.63;;;2.72;;
38717;SDS011;24468;52.128;9.278;2024-01-15T03:07:32;11.13;;;2.47;;
38717;SDS011;24468;52.128;9.278;2024-01-15T03:09:58;8.77;;;3.78;;
38717;SDS011;24468;52.128;9.278;2024-01-15T03:12:23;8.35;;;2.20;;
38717;SDS011;24468;52.128;9.278;2024-01-15T03:14:49;6.13;;;2.53;;
38717;SDS011;24468;52.128;9.278;2024-01-15T03:17:14;5.63;;;2.45;;
38717;SDS011;24468;52.128;9.278;2024-01-15T03:19:40;6.18;;;2.72;;
38717;SDS011;24468;52.128;9.278;2024-01-15T03:22:05;8.38;;;2.55;;
38717;SDS011;24468;52.128;9.278;2024-01-15T03:24:33;9.18;;;3.08;;
38717;SDS011;24468;52.128;9.278;2024-01-15T03:26:59;11.73;;;4.30;;
38717;SDS011;24468;52.128;9.278;2024-01-15T03:29:25;14.13;;;3.17;;
38717;SDS011;24468;52.128;9.278;2024-01-15T03:31:51;10.07;;;3.63;;
38717;SDS011;24468;52.128;9.278;2024-01-15T03:34:17;7.10;;;3.10;;
38717;SDS011;24468;52.128;9.278;2024-01-15T03:36:42;6.70;;;3.17;;
38717;SDS011;24468;52.128;9.278;2024-01-15T03:39:08;6.38;;;2.42;;
38717;SDS011;24468;52.128;9.278;2024-01-15T03:41:33;9.02;;;2.28;;
38717;SDS011;24468;52.128;9.278;2024-01-15T03:43:59;12.27;;;2.53;;
38717;SDS011;24468;52.128;9.278;2024-01-15T03:46:24;7.00;;;2.40;;
38717;SDS011;24468;52.128;9.278;2024-01-15T03:48:50;12.88;;;3.00;;
38717;SDS011;24468;52.128;9.278;2024-01-15T03:51:17;6.47;;;2.20;;
38717;SDS011;24468;52.128;9.278;2024-01-15T03:53:42;7.90;;;2.35;;
38717;SDS011;24468;52.128;9.278;2024-01-15T03:56:08;9.75;;;3.08;;
38717;SDS011;24468;52.128;9.278;2024-01-15T03:58:34;6.53;;;2.90;;
38717;SDS011;24468;52.128;9.278;2024-01-15T04:00:59;9.35;;;3.20;;
38717;SDS011;24468;52.128;9.278;2024-01-15T04:03:25;6.60;;;2.30;;
38717;SDS011;24468;52.128;9.278;2024-01-15T04:05:50;6.88;;;2.60;;
38717;SDS011;24468;52.128;9.278;2024-01-15T04:08:16;8.02;;;2.85;;
38717;SDS011;24468;52.128;9.278;2024-01-15T04:10:41;8.82;;;2.95;;
38717;SDS011;24468;52.128;9.278;2024-01-15T04:13:07;9.35;;;2.47;;
38717;SDS011;24468;52.128;9.278;2024-01-15T04:15:32;9.52;;;3.33;;
38717;SDS011;24468;52.128;9.278;2024-01-15T04:17:58;11.05;;;2.67;;
38717;SDS011;24468;52.128;9.278;2024-01-15T04:20:24;9.38;;;2.35;;
38717;SDS011;24468;52.128;9.278;2024-01-15T04:22:49;8.55;;;2.65;;
38717;SDS011;24468;52.128;9.278;2024-01-15T04:25:15;10.35;;;3.20;;
38717;SDS011;24468;52.128;9.278;2024-01-15T04:27:40;19.10;;;7.88;;
38717;SDS011;24468;52.128;9.278;2024-01-15T04:30:06;14.10;;;4.55;;
38717;SDS011;24468;52.128;9.278;2024-01-15T04:32:32;9.93;;;3.67;;
38717;SDS011;24468;52.128;9.278;2024-01-15T04:34:58;10.05;;;3.90;;
38717;SDS011;24468;52.128;9.278;2024-01-15T04:37:23;12.05;;;3.70;;
38717;SDS011;24468;52.128;9.278;2024-01-15T04:39:49;5.88;;;2.60;;
38717;SDS011;24468;52.128;9.278;2024-01-15T04:42:17;13.52;;;3.33;;
38717;SDS011;24468;52.128;9.278;2024-01-15T04:44:43;8.80;;;4.13;;
38717;SDS011;24468;52.128;9.278;2024-01-15T04:47:08;9.52;;;3.95;;
38717;SDS011;24468;52.128;9.278;2024-01-15T04:49:34;9.05;;;3.15;;
38717;SDS011;24468;52.128;9.278;2024-01-15T04:51:59;12.48;;;4.10;;
38717;SDS011;24468;52.128;9.278;2024-01-15T04:54:25;7.10;;;3.60;;
38717;SDS011;24468;52.128;9.278;2024-01-15T04:56:50;9.02;;;3.58;;
38717;SDS011;24468;52.128;9.278;2024-01-15T04:59:16;8.93;;;3.78;;
38717;SDS011;24468;52.128;9.278;2024-01-15T05:01:41;6.13;;;3.17;;
38717;SDS011;24468;52.128;9.278;2024-01-15T05:04:07;7.03;;;3.45;;
38717;SDS011;24468;52.128;9.278;2024-01-15T05:06:33;9.93;;;3.75;;
38717;SDS011;24468;52.128;9.278;2024-01-15T05:08:58;6.80;;;3.83;;
38717;SDS011;24468;52.128;9.278;2024-01-15T05:11:24;11.63;;;4.20;;
38717;SDS011;24468;52.128;9.278;2024-01-15T05:13:50;6.38;;;3.35;;
38717;SDS011;24468;52.128;9.278;2024-01-15T05:16:15;5.15;;;3.10;;
38717;SDS011;24468;52.128;9.278;2024-01-15T05:18:41;8.80;;;3.42;;
38717;SDS011;24468;52.128;9.278;2024-01-15T05:21:06;7.78;;;3.35;;
38717;SDS011;24468;52.128;9.278;2024-01-15T05:23:32;11.75;;;2.70;;
38717;SDS011;24468;52.128;9.278;2024-01-15T05:25:57;11.40;;;3.97;;
38717;SDS011;24468;52.128;9.278;2024-01-15T05:28:23;11.00;;;3.42;;
38717;SDS011;24468;52.128;9.278;2024-01-15T05:30:48;13.77;;;4.07;;
38717;SDS011;24468;52.128;9.278;2024-01-15T05:33:15;11.05;;;4.45;;
38717;SDS011;24468;52.128;9.278;2024-01-15T05:35:41;11.32;;;4.05;;
38717;SDS011;24468;52.128;9.278;2024-01-15T05:38:07;6.78;;;2.08;;
38717;SDS011;24468;52.128;9.278;2024-01-15T05:40:33;10.07;;;3.70;;
38717;SDS011;24468;52.128;9.278;2024-01-15T05:42:58;9.15;;;3.38;;
38717;SDS011;24468;52.128;9.278;2024-01-15T05:45:25;7.65;;;3.47;;
38717;SDS011;24468;52.128;9.278;2024-01-15T05:47:51;9.82;;;4.07;;
38717;SDS011;24468;52.128;9.278;2024-01-15T05:50:17;8.68;;;3.95;;
38717;SDS011;24468;52.128;9.278;2024-01-15T05:52:43;7.47;;;3.80;;
38717;SDS011;24468;52.128;9.278;2024-01-15T05:55:08;5.00;;;2.42;;
38717;SDS011;24468;52.128;9.278;2024-01-15T05:57:34;5.45;;;2.40;;
38717;SDS011;24468;52.128;9.278;2024-01-15T06:00:00;8.85;;;2.95;;
38717;SDS011;24468;52.128;9.278;2024-01-15T06:02:26;8.77;;;2.95;;
38717;SDS011;24468;52.128;9.278;2024-01-15T06:04:51;8.65;;;3.45;;
38717;SDS011;24468;52.128;9.278;2024-01-15T06:07:17;6.93;;;2.88;;
38717;SDS011;24468;52.128;9.278;2024-01-15T06:09:42;10.70;;;3.45;;
38717;SDS011;24468;52.128;9.278;2024-01-15T06:12:08;11.13;;;4.10;;
38717;SDS011;24468;52.128;9.278;2024-01-15T06:14:33;10.20;;;4.40;;
38717;SDS011;24468;52.128;9.278;2024-01-15T06:16:59;4.43;;;2.15;;
38717;SDS011;24468;52.128;9.278;2024-01-15T06:19:24;6.30;;;3.47;;
38717;SDS011;24468;52.128;9.278;2024-01-15T06:21:50;4.70;;;2.28;;
38717;SDS011;24468;52.128;9.278;2024-01-15T06:24:15;9.75;;;3.15;;
38717;SDS011;24468;52.128;9.278;2024-01-15T06:26:42;5.65;;;2.33;;
38717;SDS011;24468;52.128;9.278;2024-01-15T06:29:08;5.80;;;2.42;;
38717;SDS011;24468;52.128;9.278;2024-01-15T06:31:34;5.70;;;2.13;;
38717;SDS011;24468;52.128;9.278;2024-01-15T06:33:59;10.95;;;3.13;;
38717;SDS011;24468;52.128;9.278;2024-01-15T06:36:25;6.15;;;2.67;;
38717;SDS011;24468;52.128;9.278;2024-01-15T06:38:50;5.32;;;2.20;;
38717;SDS011;24468;52.128;9.278;2024-01-15T06:41:16;5.78;;;2.17;;
38717;SDS011;24468;52.128;9.278;2024-01-15T06:43:41;8.68;;;2.63;;
38717;SDS011;24468;52.128;9.278;2024-01-15T06:46:07;4.90;;;1.92;;
38717;SDS011;24468;52.128;9.278;2024-01-15T06:48:32;9.80;;;2.65;;
38717;SDS011;24468;52.128;9.278;2024-01-15T06:50:58;4.07;;;2.33;;
38717;SDS011;24468;52.128;9.278;2024-01-15T06:53:23;4.05;;;2.00;;
38717;SDS011;24468;52.128;9.278;2024-01-15T06:55:49;4.03;;;2.17;;
38717;SDS011;24468;52.128;9.278;2024-01-15T06:58:16;4.85;;;1.88;;
38717;SDS011;24468;52.128;9.278;2024-01-15T07:00:41;5.13;;;2.88;;
38717;SDS011;24468;52.128;9.278;2024-01-15T07:03:07;6.72;;;2.40;;
38717;SDS011;24468;52.128;9.278;2024-01-15T07:05:32;8.32;;;2.05;;
38717;SDS011;24468;52.128;9.278;2024-01-15T07:07:58;7.35;;;2.38;;
38717;SDS011;24468;52.128;9.278;2024-01-15T07:10:24;4.07;;;2.10;;
38717;SDS011;24468;52.128;9.278;2024-01-15T07:12:49;5.68;;;1.92;;
38717;SDS011;24468;52.128;9.278;2024-01-15T07:15:15;7.22;;;2.05;;
38717;SDS011;24468;52.128;9.278;2024-01-15T07:17:41;6.90;;;2.00;;
38717;SDS011;24468;52.128;9.278;2024-01-15T07:20:07;2.17;;;1.60;;
38717;SDS011;24468;52.128;9.278;2024-01-15T07:22:37;4.75;;;1.95;;
38717;SDS011;24468;52.128;9.278;2024-01-15T07:25:03;5.32;;;1.75;;
38717;SDS011;24468;52.128;9.278;2024-01-15T07:27:30;4.80;;;1.65;;
38717;SDS011;24468;52.128;9.278;2024-01-15T07:29:56;4.65;;;1.92;;
38717;SDS011;24468;52.128;9.278;2024-01-15T07:32:22;4.03;;;1.92;;
38717;SDS011;24468;52.128;9.278;2024-01-15T07:34:48;2.45;;;1.45;;
38717;SDS011;24468;52.128;9.278;2024-01-15T07:37:14;2.85;;;2.08;;
38717;SDS011;24468;52.128;9.278;2024-01-15T07:39:40;3.60;;;2.10;;
38717;SDS011;24468;52.128;9.278;2024-01-15T07:42:05;5.22;;;2.00;;
38717;SDS011;24468;52.128;9.278;2024-01-15T07:44:32;3.80;;;1.90;;
38717;SDS011;24468;52.128;9.278;2024-01-15T07:46:58;8.40;;;3.25;;
38717;SDS011;24468;52.128;9.278;2024-01-15T07:49:23;3.53;;;1.95;;
38717;SDS011;24468;52.128;9.278;2024-01-15T07:51:49;4.28;;;2.03;;
38717;SDS011;24468;52.128;9.278;2024-01-15T07:54:14;8.50;;;2.40;;
38717;SDS011;24468;52.128;9.278;2024-01-15T07:59:38;5.18;;;2.03;;
38717;SDS011;24468;52.128;9.278;2024-01-15T08:02:03;5.20;;;2.33;;
38717;SDS011;24468;52.128;9.278;2024-01-15T08:04:29;3.45;;;1.85;;
38717;SDS011;24468;52.128;9.278;2024-01-15T08:06:55;3.58;;;1.92;;
38717;SDS011;24468;52.128;9.278;2024-01-15T08:09:21;4.65;;;1.58;;
38717;SDS011;24468;52.128;9.278;2024-01-15T08:11:47;4.35;;;2.28;;
38717;SDS011;24468;52.128;9.278;2024-01-15T08:14:14;8.43;;;2.15;;
38717;SDS011;24468;52.128;9.278;2024-01-15T08:16:39;5.10;;;1.33;;
38717;SDS011;24468;52.128;9.278;2024-01-15T08:19:05;7.40;;;2.33;;
38717;SDS011;24468;52.128;9.278;2024-01-15T08:21:31;5.63;;;1.95;;
38717;SDS011;24468;52.128;9.278;2024-01-15T08:24:00;3.15;;;1.55;;
38717;SDS011;24468;52.128;9.278;2024-01-15T08:26:28;3.83;;;1.77;;
38717;SDS011;24468;52.128;9.278;2024-01-15T08:28:54;3.35;;;2.08;;
38717;SDS011;24468;52.128;9.278;2024-01-15T08:31:20;5.07;;;2.38;;
38717;SDS011;24468;52.128;9.278;2024-01-15T08:33:45;8.77;;;2.53;;
38717;SDS011;24468;52.128;9.278;2024-01-15T08:36:11;5.90;;;2.08;;
38717;SDS011;24468;52.128;9.278;2024-01-15T08:38:37;5.10;;;1.80;;
38717;SDS011;24468;52.128;9.278;2024-01-15T08:41:03;3.47;;;1.65;;
38717;SDS011;24468;52.128;9.278;2024-01-15T08:43:29;4.65;;;1.60;;
38717;SDS011;24468;52.128;9.278;2024-01-15T08:45:56;3.05;;;2.30;;
38717;SDS011;24468;52.128;9.278;2024-01-15T08:48:22;5.95;;;4.28;;
38717;SDS011;24468;52.128;9.278;2024-01-15T08:50:47;9.90;;;4.50;;
38717;SDS011;24468;52.128;9.278;2024-01-15T08:53:13;8.30;;;2.95;;
38717;SDS011;24468;52.128;9.278;2024-01-15T08:55:39;10.30;;;3.38;;
38717;SDS011;24468;52.128;9.278;2024-01-15T08:58:07;8.30;;;3.45;;
38717;SDS011;24468;52.128;9.278;2024-01-15T09:00:33;4.05;;;2.40;;
38717;SDS011;24468;52.128;9.278;2024-01-15T09:02:59;5.90;;;2.10;;
38717;SDS011;24468;52.128;9.278;2024-01-15T09:05:24;5.15;;;2.30;;
38717;SDS011;24468;52.128;9.278;2024-01-15T09:07:50;7.70;;;2.60;;
38717;SDS011;24468;52.128;9.278;2024-01-15T09:10:17;4.32;;;1.60;;
38717;SDS011;24468;52.128;9.278;2024-01-15T09:12:43;2.67;;;1.45;;
38717;SDS011;24468;52.128;9.278;2024-01-15T09:15:09;4.15;;;1.85;;
38717;SDS011;24468;52.128;9.278;2024-01-15T09:17:35;6.20;;;1.80;;
38717;SDS011;24468;52.128;9.278;2024-01-15T09:20:00;4.78;;;2.17;;
38717;SDS011;24468;52.128;9.278;2024-01-15T09:22:26;5.75;;;2.20;;
38717;SDS011;24468;52.128;9.278;2024-01-15T09:24:52;6.45;;;1.67;;
38717;SDS011;24468;52.128;9.278;2024-01-15T09:27:17;3.95;;;2.15;;
38717;SDS011;24468;52.128;9.278;2024-01-15T09:29:43;5.95;;;2.25;;
38717;SDS011;24468;52.128;9.278;2024-01-15T09:32:10;3.80;;;1.40;;
38717;SDS011;24468;52.128;9.278;2024-01-15T09:34:37;9.00;;;2.20;;
38717;SDS011;24468;52.128;9.278;2024-01-15T09:37:03;4.65;;;2.13;;
38717;SDS011;24468;52.128;9.278;2024-01-15T09:39:30;4.72;;;1.40;;
38717;SDS011;24468;52.128;9.278;2024-01-15T09:41:56;2.00;;;1.23;;
38717;SDS011;24468;52.128;9.278;2024-01-15T09:44:22;5.80;;;1.90;;
38717;SDS011;24468;52.128;9.278;2024-01-15T09:46:48;2.65;;;1.40;;
38717;SDS011;24468;52.128;9.278;2024-01-15T09:49:15;1.52;;;1.00;;
38717;SDS011;24468;52.128;9.278;2024-01-15T09:51:43;2.88;;;1.15;;
38717;SDS011;24468;52.128;9.278;2024-01-15T09:54:10;1.40;;;1.13;;
38717;SDS011;24468;52.128;9.278;2024-01-15T09:56:38;3.80;;;1.20;;
38717;SDS011;24468;52.128;9.278;2024-01-15T09:59:04;1.63;;;1.02;;
38717;SDS011;24468;52.128;9.278;2024-01-15T10:01:31;2.05;;;1.00;;
38717;SDS011;24468;52.128;9.278;2024-01-15T10:03:57;1.67;;;1.00;;
38717;SDS011;24468;52.128;9.278;2024-01-15T10:06:24;2.33;;;1.00;;
38717;SDS011;24468;52.128;9.278;2024-01-15T10:08:56;1.45;;;1.05;;
38717;SDS011;24468;52.128;9.278;2024-01-15T10:11:23;3.17;;;0.90;;
38717;SDS011;24468;52.128;9.278;2024-01-15T10:13:49;2.97;;;0.85;;
38717;SDS011;24468;52.128;9.278;2024-01-15T10:16:18;1.77;;;1.20;;
38717;SDS011;24468;52.128;9.278;2024-01-15T10:18:44;2.30;;;1.10;;
38717;SDS011;24468;52.128;9.278;2024-01-15T10:21:10;5.82;;;1.42;;
38717;SDS011;24468;52.128;9.278;2024-01-15T10:23:36;5.00;;;1.23;;
38717;SDS011;24468;52.128;9.278;2024-01-15T10:26:02;3.20;;;1.20;;
38717;SDS011;24468;52.128;9.278;2024-01-15T10:28:29;1.70;;;1.05;;
38717;SDS011;24468;52.128;9.278;2024-01-15T10:30:56;7.15;;;1.10;;
38717;SDS011;24468;52.128;9.278;2024-01-15T10:33:26;6.05;;;1.10;;
38717;SDS011;24468;52.128;9.278;2024-01-15T10:35:55;3.95;;;1.60;;
38717;SDS011;24468;52.128;9.278;2024-01-15T10:38:23;3.95;;;1.05;;
38717;SDS011;24468;52.128;9.278;2024-01-15T10:40:53;4.20;;;2.20;;
38717;SDS011;24468;52.128;9.278;2024-01-15T10:43:20;4.57;;;1.75;;
38717;SDS011;24468;52.128;9.278;2024-01-15T10:45:50;3.20;;;1.17;;
38717;SDS011;24468;52.128;9.278;2024-01-15T10:48:17;5.68;;;1.35;;
38717;SDS011;24468;52.128;9.278;2024-01-15T10:50:44;5.25;;;1.38;;
38717;SDS011;24468;52.128;9.278;2024-01-15T10:53:11;4.80;;;1.35;;
38717;SDS011;24468;52.128;9.278;2024-01-15T10:55:40;1.85;;;1.40;;
38717;SDS011;24468;52.128;9.278;2024-01-15T10:58:07;8.00;;;2.28;;
38717;SDS011;24468;52.128;9.278;2024-01-15T11:00:38;4.03;;;2.05;;
38717;SDS011;24468;52.128;9.278;2024-01-15T11:03:04;6.25;;;1.80;;
38717;SDS011;24468;52.128;9.278;2024-01-15T11:05:37;5.53;;;1.83;;
38717;SDS011;24468;52.128;9.278;2024-01-15T11:08:05;5.82;;;1.98;;
38717;SDS011;24468;52.128;9.278;2024-01-15T11:10:42;7.90;;;1.60;;
38717;SDS011;24468;52.128;9.278;2024-01-15T11:13:21;4.20;;;1.50;;
38717;SDS011;24468;52.128;9.278;2024-01-15T11:16:05;6.97;;;1.55;;
38717;SDS011;24468;52.128;9.278;2024-01-15T11:18:43;6.22;;;1.92;;
38717;SDS011;24468;52.128;9.278;2024-01-15T11:21:28;7.75;;;1.77;;
38717;SDS011;24468;52.128;9.278;2024-01-15T11:23:57;7.38;;;2.08;;
38717;SDS011;24468;52.128;9.278;2024-01-15T11:28:55;2.25;;;1.40;;
38717;SDS011;24468;52.128;9.278;2024-01-15T11:31:28;8.07;;;1.98;;
38717;SDS011;24468;52.128;9.278;2024-01-15T11:34:14;4.90;;;2.13;;
38717;SDS011;24468;52.128;9.278;2024-01-15T11:41:56;9.18;;;1.42;;
38717;SDS011;24468;52.128;9.278;2024-01-15T11:44:27;9.18;;;1.95;;
38717;SDS011;24468;52.128;9.278;2024-01-15T11:47:01;5.30;;;1.60;;
38717;SDS011;24468;52.128;9.278;2024-01-15T11:52:36;5.72;;;2.05;;
38717;SDS011;24468;52.128;9.278;2024-01-15T11:57:55;4.93;;;2.63;;
38717;SDS011;24468;52.128;9.278;2024-01-15T12:00:25;7.35;;;2.15;;
38717;SDS011;24468;52.128;9.278;2024-01-15T12:02:51;6.18;;;2.35;;
38717;SDS011;24468;52.128;9.278;2024-01-15T12:05:17;3.22;;;2.20;;
38717;SDS011;24468;52.128;9.278;2024-01-15T12:07:46;5.03;;;1.73;;
38717;SDS011;24468;52.128;9.278;2024-01-15T12:10:15;6.35;;;1.90;;
38717;SDS011;24468;52.128;9.278;2024-01-15T12:15:35;5.88;;;1.92;;
38717;SDS011;24468;52.128;9.278;2024-01-15T12:18:01;5.55;;;2.10;;
38717;SDS011;24468;52.128;9.278;2024-01-15T12:20:28;8.38;;;1.30;;
38717;SDS011;24468;52.128;9.278;2024-01-15T12:22:55;5.82;;;1.73;;
38717;SDS011;24468;52.128;9.278;2024-01-15T12:25:22;10.20;;;1.80;;
38717;SDS011;24468;52.128;9.278;2024-01-15T12:27:48;11.60;;;2.65;;
38717;SDS011;24468;52.128;9.278;2024-01-15T12:30:14;9.45;;;1.80;;
38717;SDS011;24468;52.128;9.278;2024-01-15T12:32:40;3.55;;;1.67;;
38717;SDS011;24468;52.128;9.278;2024-01-15T12:35:12;6.72;;;1.30;;
38717;SDS011;24468;52.128;9.278;2024-01-15T12:37:39;8.07;;;1.70;;
38717;SDS011;24468;52.128;9.278;2024-01-15T12:40:05;6.45;;;2.47;;
38717;SDS011;24468;52.128;9.278;2024-01-15T12:42:33;13.70;;;1.77;;
38717;SDS011;24468;52.128;9.278;2024-01-15T12:45:00;4.70;;;1.38;;
38717;SDS011;24468;52.128;9.278;2024-01-15T12:47:25;5.05;;;1.23;;
38717;SDS011;24468;52.128;9.278;2024-01-15T12:49:52;5.75;;;1.42;;
38717;SDS011;24468;52.128;9.278;2024-01-15T12:52:20;7.28;;;1.60;;
38717;SDS011;24468;52.128;9.278;2024-01-15T12:54:47;7.78;;;1.73;;
38717;SDS011;24468;52.128;9.278;2024-01-15T12:57:16;3.42;;;1.35;;
38717;SDS011;24468;52.128;9.278;2024-01-15T12:59:42;3.97;;;1.42;;
38717;SDS011;24468;52.128;9.278;2024-01-15T13:02:10;3.88;;;1.45;;
38717;SDS011;24468;52.128;9.278;2024-01-15T13:04:39;3.80;;;1.63;;
38717;SDS011;24468;52.128;9.278;2024-01-15T13:07:05;8.48;;;1.55;;
38717;SDS011;24468;52.128;9.278;2024-01-15T13:09:32;2.17;;;1.48;;
38717;SDS011;24468;52.128;9.278;2024-01-15T13:11:58;4.82;;;1.65;;
38717;SDS011;24468;52.128;9.278;2024-01-15T13:14:24;4.70;;;1.13;;
38717;SDS011;24468;52.128;9.278;2024-01-15T13:16:50;3.35;;;1.58;;
38717;SDS011;24468;52.128;9.278;2024-01-15T13:19:16;3.20;;;1.20;;
38717;SDS011;24468;52.128;9.278;2024-01-15T13:21:42;5.15;;;2.03;;
38717;SDS011;24468;52.128;9.278;2024-01-15T13:24:08;6.38;;;1.85;;
38717;SDS011;24468;52.128;9.278;2024-01-15T13:26:34;2.80;;;1.30;;
38717;SDS011;24468;52.128;9.278;2024-01-15T13:29:01;4.90;;;1.55;;
38717;SDS011;24468;52.128;9.278;2024-01-15T13:31:30;4.90;;;1.50;;
38717;SDS011;24468;52.128;9.278;2024-01-15T13:33:56;5.57;;;1.33;;
38717;SDS011;24468;52.128;9.278;2024-01-15T13:36:22;4.72;;;1.45;;
38717;SDS011;24468;52.128;9.278;2024-01-15T13:38:49;3.35;;;0.98;;
38717;SDS011;24468;52.128;9.278;2024-01-15T13:41:17;7.50;;;1.60;;
38717;SDS011;24468;52.128;9.278;2024-01-15T13:43:44;7.95;;;2.08;;
38717;SDS011;24468;52.128;9.278;2024-01-15T13:46:17;2.45;;;1.98;;
38717;SDS011;24468;52.128;9.278;2024-01-15T13:48:44;5.97;;;1.95;;
38717;SDS011;24468;52.128;9.278;2024-01-15T13:51:09;5.72;;;1.75;;
38717;SDS011;24468;52.128;9.278;2024-01-15T13:53:37;5.05;;;1.65;;
38717;SDS011;24468;52.128;9.278;2024-01-15T13:56:03;9.38;;;2.45;;
38717;SDS011;24468;52.128;9.278;2024-01-15T13:58:30;3.28;;;1.38;;
38717;SDS011;24468;52.128;9.278;2024-01-15T14:00:57;3.17;;;1.65;;
38717;SDS011;24468;52.128;9.278;2024-01-15T14:03:23;4.90;;;1.67;;
38717;SDS011;24468;52.128;9.278;2024-01-15T14:05:50;5.97;;;2.53;;
38717;SDS011;24468;52.128;9.278;2024-01-15T14:08:16;5.60;;;2.70;;
38717;SDS011;24468;52.128;9.278;2024-01-15T14:10:42;6.72;;;2.70;;
38717;SDS011;24468;52.128;9.278;2024-01-15T14:13:07;8.30;;;2.40;;
38717;SDS011;24468;52.128;9.278;2024-01-15T14:15:33;7.10;;;2.70;;
38717;SDS011;24468;52.128;9.278;2024-01-15T14:17:59;6.47;;;2.38;;
38717;SDS011;24468;52.128;9.278;2024-01-15T14:20:26;4.78;;;1.27;;
38717;SDS011;24468;52.128;9.278;2024-01-15T14:22:52;3.22;;;1.33;;
38717;SDS011;24468;52.128;9.278;2024-01-15T14:25:18;6.78;;;4.00;;
38717;SDS011;24468;52.128;9.278;2024-01-15T14:27:43;5.22;;;1.80;;
38717;SDS011;24468;52.128;9.278;2024-01-15T14:30:09;2.80;;;1.70;;
38717;SDS011;24468;52.128;9.278;2024-01-15T14:32:37;1.50;;;0.90;;
38717;SDS011;24468;52.128;9.278;2024-01-15T14:35:06;2.97;;;1.50;;
38717;SDS011;24468;52.128;9.278;2024-01-15T14:37:33;3.53;;;0.90;;
38717;SDS011;24468;52.128;9.278;2024-01-15T14:39:58;4.50;;;1.80;;
38717;SDS011;24468;52.128;9.278;2024-01-15T14:42:24;4.45;;;1.20;;
38717;SDS011;24468;52.128;9.278;2024-01-15T14:44:50;4.32;;;1.20;;
38717;SDS011;24468;52.128;9.278;2024-01-15T14:47:16;4.22;;;1.23;;
38717;SDS011;24468;52.128;9.278;2024-01-15T14:49:41;3.90;;;1.58;;
38717;SDS011;24468;52.128;9.278;2024-01-15T14:52:07;1.48;;;1.10;;
38717;SDS011;24468;52.128;9.278;2024-01-15T14:54:33;3.75;;;1.70;;
38717;SDS011;24468;52.128;9.278;2024-01-15T14:56:58;3.47;;;1.33;;
38717;SDS011;24468;52.128;9.278;2024-01-15T14:59:24;2.22;;;1.52;;
38717;SDS011;24468;52.128;9.278;2024-01-15T15:01:49;5.63;;;2.38;;